sensor_id;sensor_type;location;lat;lon;timestamp;P1;durP1;ratioP1;P2;durP2;ratioP2
10333;SDS011;5212;47.892;16.406;2023-08-21T00:00:49;7.77;;;5.70;;
10333;SDS011;5212;47.892;16.406;2023-08-21T00:03:15;9.17;;;6.20;;
10333;SDS011;5212;47.892;16.406;2023-08-21T00:05:41;7.90;;;6.10;;
10333;SDS011;5212;47.892;16.406;2023-08-21T00:08:07;7.50;;;5.93;;
10333;SDS011;5212;47.892;16.406;2023-08-21T00:10:33;8.17;;;5.83;;
10333;SDS011;5212;47.892;16.406;2023-08-21T00:13:02;7.93;;;5.57;;
10333;SDS011;5212;47.892;16.406;2023-08-21T00:15:29;6.77;;;5.37;;
10333;SDS011;5212;47.892;16.406;2023-08-21T00:17:55;8.33;;;6.17;;
10333;SDS011;5212;47.892;16.406;2023-08-21T00:20:22;8.53;;;6.00;;
10333;SDS011;5212;47.892;16.406;2023-08-21T00:22:48;7.57;;;5.80;;
10333;SDS011;5212;47.892;16.406;2023-08-21T00:25:14;8.40;;;5.80;;
10333;SDS011;5212;47.892;16.406;2023-08-21T00:27:40;7.83;;;5.63;;
10333;SDS011;5212;47.892;16.406;2023-08-21T00:30:07;7.17;;;5.60;;
10333;SDS011;5212;47.892;16.406;2023-08-21T00:32:34;8.10;;;5.50;;
10333;SDS011;5212;47.892;16.406;2023-08-21T00:35:00;8.93;;;5.70;;
10333;SDS011;5212;47.892;16.406;2023-08-21T00:37:26;8.10;;;5.90;;
10333;SDS011;5212;47.892;16.406;2023-08-21T00:39:52;7.93;;;5.80;;
10333;SDS011;5212;47.892;16.406;2023-08-21T00:42:18;8.17;;;5.77;;
10333;SDS011;5212;47.892;16.406;2023-08-21T00:44:44;6.53;;;5.10;;
10333;SDS011;5212;47.892;16.406;2023-08-21T00:47:10;8.07;;;6.03;;
10333;SDS011;5212;47.892;16.406;2023-08-21T00:49:37;7.43;;;5.50;;
10333;SDS011;5212;47.892;16.406;2023-08-21T00:52:04;7.53;;;5.33;;
10333;SDS011;5212;47.892;16.406;2023-08-21T00:54:32;6.43;;;5.13;;
10333;SDS011;5212;47.892;16.406;2023-08-21T00:56:58;7.40;;;5.57;;
10333;SDS011;5212;47.892;16.406;2023-08-21T00:59:24;8.47;;;5.80;;
10333;SDS011;5212;47.892;16.406;2023-08-21T01:01:50;8.97;;;5.90;;
10333;SDS011;5212;47.892;16.406;2023-08-21T01:04:16;7.50;;;5.37;;
10333;SDS011;5212;47.892;16.406;2023-08-21T01:06:43;7.27;;;5.23;;
10333;SDS011;5212;47.892;16.406;2023-08-21T01:09:15;7.03;;;5.30;;
10333;SDS011;5212;47.892;16.406;2023-08-21T01:11:46;7.87;;;5.83;;
10333;SDS011;5212;47.892;16.406;2023-08-21T01:14:17;9.27;;;5.70;;
10333;SDS011;5212;47.892;16.406;2023-08-21T01:16:49;6.00;;;5.03;;
10333;SDS011;5212;47.892;16.406;2023-08-21T01:19:19;8.07;;;6.07;;
10333;SDS011;5212;47.892;16.406;2023-08-21T01:21:52;7.27;;;5.77;;
10333;SDS011;5212;47.892;16.406;2023-08-21T01:24:19;8.13;;;6.27;;
10333;SDS011;5212;47.892;16.406;2023-08-21T01:26:45;11.97;;;6.70;;
10333;SDS011;5212;47.892;16.406;2023-08-21T01:29:11;9.83;;;6.50;;
10333;SDS011;5212;47.892;16.406;2023-08-21T01:31:37;7.67;;;5.97;;
10333;SDS011;5212;47.892;16.406;2023-08-21T01:34:06;8.93;;;6.37;;
10333;SDS011;5212;47.892;16.406;2023-08-21T01:36:34;9.97;;;6.07;;
10333;SDS011;5212;47.892;16.406;2023-08-21T01:39:00;8.77;;;5.93;;
10333;SDS011;5212;47.892;16.406;2023-08-21T01:41:27;7.87;;;6.07;;
10333;SDS011;5212;47.892;16.406;2023-08-21T01:43:53;8.80;;;6.43;;
10333;SDS011;5212;47.892;16.406;2023-08-21T01:46:19;9.57;;;6.10;;
10333;SDS011;5212;47.892;16.406;2023-08-21T01:48:45;9.57;;;6.40;;
10333;SDS011;5212;47.892;16.406;2023-08-21T01:51:11;8.33;;;5.83;;
10333;SDS011;5212;47.892;16.406;2023-08-21T01:53:37;8.43;;;5.87;;
10333;SDS011;5212;47.892;16.406;2023-08-21T01:56:03;8.47;;;6.43;;
10333;SDS011;5212;47.892;16.406;2023-08-21T01:58:30;10.50;;;6.60;;
10333;SDS011;5212;47.892;16.406;2023-08-21T02:00:56;10.63;;;6.60;;
10333;SDS011;5212;47.892;16.406;2023-08-21T02:03:24;7.57;;;5.63;;
10333;SDS011;5212;47.892;16.406;2023-08-21T02:05:51;7.33;;;5.67;;
10333;SDS011;5212;47.892;16.406;2023-08-21T02:08:21;11.30;;;6.20;;
10333;SDS011;5212;47.892;16.406;2023-08-21T02:10:50;9.30;;;6.53;;
10333;SDS011;5212;47.892;16.406;2023-08-21T02:13:16;9.63;;;7.00;;
10333;SDS011;5212;47.892;16.406;2023-08-21T02:15:44;10.83;;;6.20;;
10333;SDS011;5212;47.892;16.406;2023-08-21T02:18:10;10.33;;;7.20;;
10333;SDS011;5212;47.892;16.406;2023-08-21T02:20:36;9.10;;;6.40;;
10333;SDS011;5212;47.892;16.406;2023-08-21T02:23:02;7.27;;;5.37;;
10333;SDS011;5212;47.892;16.406;2023-08-21T02:25:29;8.13;;;5.67;;
10333;SDS011;5212;47.892;16.406;2023-08-21T02:27:55;7.80;;;6.00;;
10333;SDS011;5212;47.892;16.406;2023-08-21T02:30:21;6.93;;;5.37;;
10333;SDS011;5212;47.892;16.406;2023-08-21T02:32:50;7.80;;;5.40;;
10333;SDS011;5212;47.892;16.406;2023-08-21T02:35:16;7.23;;;5.23;;
10333;SDS011;5212;47.892;16.406;2023-08-21T02:37:43;7.07;;;5.27;;
10333;SDS011;5212;47.892;16.406;2023-08-21T02:40:09;7.40;;;5.23;;
10333;SDS011;5212;47.892;16.406;2023-08-21T02:42:35;6.57;;;5.40;;
10333;SDS011;5212;47.892;16.406;2023-08-21T02:45:01;9.47;;;6.47;;
10333;SDS011;5212;47.892;16.406;2023-08-21T02:47:33;9.33;;;5.67;;
10333;SDS011;5212;47.892;16.406;2023-08-21T02:49:59;8.00;;;6.03;;
10333;SDS011;5212;47.892;16.406;2023-08-21T02:52:25;6.97;;;5.30;;
10333;SDS011;5212;47.892;16.406;2023-08-21T02:54:51;7.80;;;5.90;;
10333;SDS011;5212;47.892;16.406;2023-08-21T02:57:17;9.40;;;5.63;;
10333;SDS011;5212;47.892;16.406;2023-08-21T02:59:43;7.93;;;5.70;;
10333;SDS011;5212;47.892;16.406;2023-08-21T03:02:09;9.23;;;5.67;;
10333;SDS011;5212;47.892;16.406;2023-08-21T03:04:36;7.47;;;5.57;;
10333;SDS011;5212;47.892;16.406;2023-08-21T03:07:02;7.33;;;5.33;;
10333;SDS011;5212;47.892;16.406;2023-08-21T03:09:28;7.17;;;5.63;;
10333;SDS011;5212;47.892;16.406;2023-08-21T03:11:54;7.70;;;5.67;;
10333;SDS011;5212;47.892;16.406;2023-08-21T03:14:20;8.27;;;6.17;;
10333;SDS011;5212;47.892;16.406;2023-08-21T03:16:46;8.10;;;6.30;;
10333;SDS011;5212;47.892;16.406;2023-08-21T03:19:12;9.90;;;6.90;;
10333;SDS011;5212;47.892;16.406;2023-08-21T03:21:38;7.43;;;6.10;;
10333;SDS011;5212;47.892;16.406;2023-08-21T03:24:05;9.07;;;7.13;;
10333;SDS011;5212;47.892;16.406;2023-08-21T03:26:31;7.70;;;6.23;;
10333;SDS011;5212;47.892;16.406;2023-08-21T03:28:57;9.57;;;6.53;;
10333;SDS011;5212;47.892;16.406;2023-08-21T03:31:23;8.50;;;6.40;;
10333;SDS011;5212;47.892;16.406;2023-08-21T03:33:49;8.73;;;5.80;;
10333;SDS011;5212;47.892;16.406;2023-08-21T03:36:15;8.87;;;6.40;;
10333;SDS011;5212;47.892;16.406;2023-08-21T03:38:41;8.40;;;6.17;;
10333;SDS011;5212;47.892;16.406;2023-08-21T03:41:08;9.37;;;6.43;;
10333;SDS011;5212;47.892;16.406;2023-08-21T03:43:34;9.33;;;6.27;;
10333;SDS011;5212;47.892;16.406;2023-08-21T03:46:00;8.27;;;6.47;;
10333;SDS011;5212;47.892;16.406;2023-08-21T03:48:26;9.23;;;6.60;;
10333;SDS011;5212;47.892;16.406;2023-08-21T03:50:52;9.97;;;7.03;;
10333;SDS011;5212;47.892;16.406;2023-08-21T03:53:18;9.10;;;6.83;;
10333;SDS011;5212;47.892;16.406;2023-08-21T03:55:44;9.17;;;6.70;;
10333;SDS011;5212;47.892;16.406;2023-08-21T03:58:11;9.77;;;6.63;;
10333;SDS011;5212;47.892;16.406;2023-08-21T04:00:37;9.87;;;6.77;;
10333;SDS011;5212;47.892;16.406;2023-08-21T04:03:03;8.43;;;6.57;;
10333;SDS011;5212;47.892;16.406;2023-08-21T04:05:29;9.03;;;6.70;;
10333;SDS011;5212;47.892;16.406;2023-08-21T04:07:55;9.63;;;6.80;;
10333;SDS011;5212;47.892;16.406;2023-08-21T04:10:21;10.30;;;7.20;;
10333;SDS011;5212;47.892;16.406;2023-08-21T04:12:47;14.30;;;7.93;;
10333;SDS011;5212;47.892;16.406;2023-08-21T04:15:14;11.37;;;7.17;;
10333;SDS011;5212;47.892;16.406;2023-08-21T04:17:40;8.73;;;6.40;;
10333;SDS011;5212;47.892;16.406;2023-08-21T04:20:06;9.47;;;6.70;;
10333;SDS011;5212;47.892;16.406;2023-08-21T04:22:33;8.53;;;6.30;;
10333;SDS011;5212;47.892;16.406;2023-08-21T04:24:59;10.10;;;7.03;;
10333;SDS011;5212;47.892;16.406;2023-08-21T04:27:26;10.90;;;6.80;;
10333;SDS011;5212;47.892;16.406;2023-08-21T04:29:52;9.63;;;6.50;;
10333;SDS011;5212;47.892;16.406;2023-08-21T04:32:19;9.10;;;6.50;;
10333;SDS011;5212;47.892;16.406;2023-08-21T04:34:46;9.90;;;6.57;;
10333;SDS011;5212;47.892;16.406;2023-08-21T04:37:12;11.87;;;7.20;;
10333;SDS011;5212;47.892;16.406;2023-08-21T04:39:38;10.00;;;6.93;;
10333;SDS011;5212;47.892;16.406;2023-08-21T04:42:04;11.03;;;7.97;;
10333;SDS011;5212;47.892;16.406;2023-08-21T04:44:30;12.00;;;8.37;;
10333;SDS011;5212;47.892;16.406;2023-08-21T04:46:56;9.90;;;7.60;;
10333;SDS011;5212;47.892;16.406;2023-08-21T04:49:23;12.20;;;8.20;;
10333;SDS011;5212;47.892;16.406;2023-08-21T04:51:49;11.23;;;7.17;;
10333;SDS011;5212;47.892;16.406;2023-08-21T04:54:15;12.00;;;8.37;;
10333;SDS011;5212;47.892;16.406;2023-08-21T04:56:41;10.80;;;8.03;;
10333;SDS011;5212;47.892;16.406;2023-08-21T04:59:07;11.13;;;7.93;;
10333;SDS011;5212;47.892;16.406;2023-08-21T05:01:33;11.30;;;7.77;;
10333;SDS011;5212;47.892;16.406;2023-08-21T05:03:59;11.23;;;7.87;;
10333;SDS011;5212;47.892;16.406;2023-08-21T05:06:26;12.60;;;7.77;;
10333;SDS011;5212;47.892;16.406;2023-08-21T05:08:52;12.17;;;9.00;;
10333;SDS011;5212;47.892;16.406;2023-08-21T05:11:17;9.93;;;7.37;;
10333;SDS011;5212;47.892;16.406;2023-08-21T05:13:44;12.60;;;8.40;;
10333;SDS011;5212;47.892;16.406;2023-08-21T05:16:10;12.50;;;8.83;;
10333;SDS011;5212;47.892;16.406;2023-08-21T05:18:36;11.47;;;7.53;;
10333;SDS011;5212;47.892;16.406;2023-08-21T05:21:02;10.87;;;8.10;;
10333;SDS011;5212;47.892;16.406;2023-08-21T05:23:29;12.30;;;8.70;;
10333;SDS011;5212;47.892;16.406;2023-08-21T05:25:55;9.27;;;6.90;;
10333;SDS011;5212;47.892;16.406;2023-08-21T05:28:21;12.13;;;7.90;;
10333;SDS011;5212;47.892;16.406;2023-08-21T05:30:47;12.33;;;7.87;;
10333;SDS011;5212;47.892;16.406;2023-08-21T05:33:14;12.10;;;8.10;;
10333;SDS011;5212;47.892;16.406;2023-08-21T05:35:40;11.17;;;7.43;;
10333;SDS011;5212;47.892;16.406;2023-08-21T05:38:06;10.53;;;7.47;;
10333;SDS011;5212;47.892;16.406;2023-08-21T05:40:33;11.27;;;7.83;;
10333;SDS011;5212;47.892;16.406;2023-08-21T05:42:59;12.13;;;7.60;;
10333;SDS011;5212;47.892;16.406;2023-08-21T05:45:25;11.57;;;7.13;;
10333;SDS011;5212;47.892;16.406;2023-08-21T05:47:51;10.80;;;8.20;;
10333;SDS011;5212;47.892;16.406;2023-08-21T05:50:17;10.63;;;7.70;;
10333;SDS011;5212;47.892;16.406;2023-08-21T05:52:43;10.67;;;7.87;;
10333;SDS011;5212;47.892;16.406;2023-08-21T05:55:09;13.73;;;8.57;;
10333;SDS011;5212;47.892;16.406;2023-08-21T05:57:36;12.43;;;8.37;;
10333;SDS011;5212;47.892;16.406;2023-08-21T06:00:03;13.40;;;9.27;;
10333;SDS011;5212;47.892;16.406;2023-08-21T06:02:33;16.80;;;8.50;;
10333;SDS011;5212;47.892;16.406;2023-08-21T06:04:59;14.67;;;8.53;;
10333;SDS011;5212;47.892;16.406;2023-08-21T06:07:25;13.23;;;9.30;;
10333;SDS011;5212;47.892;16.406;2023-08-21T06:09:51;12.40;;;9.17;;
10333;SDS011;5212;47.892;16.406;2023-08-21T06:12:18;12.47;;;8.97;;
10333;SDS011;5212;47.892;16.406;2023-08-21T06:14:45;11.03;;;8.37;;
10333;SDS011;5212;47.892;16.406;2023-08-21T06:17:11;11.40;;;8.17;;
10333;SDS011;5212;47.892;16.406;2023-08-21T06:19:37;10.93;;;7.87;;
10333;SDS011;5212;47.892;16.406;2023-08-21T06:22:04;12.50;;;8.33;;
10333;SDS011;5212;47.892;16.406;2023-08-21T06:24:30;10.20;;;7.80;;
10333;SDS011;5212;47.892;16.406;2023-08-21T06:26:56;9.80;;;7.90;;
10333;SDS011;5212;47.892;16.406;2023-08-21T06:29:22;11.83;;;8.13;;
10333;SDS011;5212;47.892;16.406;2023-08-21T06:31:49;10.43;;;8.13;;
10333;SDS011;5212;47.892;16.406;2023-08-21T06:34:15;14.87;;;8.53;;
10333;SDS011;5212;47.892;16.406;2023-08-21T06:36:41;11.70;;;8.10;;
10333;SDS011;5212;47.892;16.406;2023-08-21T06:39:07;11.30;;;7.87;;
10333;SDS011;5212;47.892;16.406;2023-08-21T06:41:34;10.80;;;8.33;;
10333;SDS011;5212;47.892;16.406;2023-08-21T06:44:00;9.47;;;7.80;;
10333;SDS011;5212;47.892;16.406;2023-08-21T06:46:26;11.33;;;7.93;;
10333;SDS011;5212;47.892;16.406;2023-08-21T06:48:52;9.23;;;7.63;;
10333;SDS011;5212;47.892;16.406;2023-08-21T06:51:18;12.03;;;8.80;;
10333;SDS011;5212;47.892;16.406;2023-08-21T06:53:44;12.87;;;9.00;;
10333;SDS011;5212;47.892;16.406;2023-08-21T06:56:11;10.87;;;8.73;;
10333;SDS011;5212;47.892;16.406;2023-08-21T06:58:37;9.80;;;7.37;;
10333;SDS011;5212;47.892;16.406;2023-08-21T07:01:03;13.40;;;8.37;;
10333;SDS011;5212;47.892;16.406;2023-08-21T07:03:29;12.20;;;8.60;;
10333;SDS011;5212;47.892;16.406;2023-08-21T07:05:56;10.93;;;8.47;;
10333;SDS011;5212;47.892;16.406;2023-08-21T07:08:23;10.87;;;8.80;;
10333;SDS011;5212;47.892;16.406;2023-08-21T07:10:49;10.57;;;7.73;;
10333;SDS011;5212;47.892;16.406;2023-08-21T07:13:15;11.30;;;7.73;;
10333;SDS011;5212;47.892;16.406;2023-08-21T07:15:41;8.50;;;7.17;;
10333;SDS011;5212;47.892;16.406;2023-08-21T07:18:07;9.47;;;7.20;;
10333;SDS011;5212;47.892;16.406;2023-08-21T07:20:33;9.87;;;6.60;;
10333;SDS011;5212;47.892;16.406;2023-08-21T07:23:00;9.40;;;7.13;;
10333;SDS011;5212;47.892;16.406;2023-08-21T07:25:26;9.20;;;6.73;;
10333;SDS011;5212;47.892;16.406;2023-08-21T07:27:53;10.00;;;7.03;;
10333;SDS011;5212;47.892;16.406;2023-08-21T07:30:19;9.47;;;6.60;;
10333;SDS011;5212;47.892;16.406;2023-08-21T07:32:46;9.10;;;7.03;;
10333;SDS011;5212;47.892;16.406;2023-08-21T07:35:12;10.37;;;7.20;;
10333;SDS011;5212;47.892;16.406;2023-08-21T07:37:38;9.53;;;7.40;;
10333;SDS011;5212;47.892;16.406;2023-08-21T07:40:07;9.40;;;7.53;;
10333;SDS011;5212;47.892;16.406;2023-08-21T07:42:33;9.33;;;7.43;;
10333;SDS011;5212;47.892;16.406;2023-08-21T07:44:59;7.83;;;6.87;;
10333;SDS011;5212;47.892;16.406;2023-08-21T07:47:26;10.23;;;7.77;;
10333;SDS011;5212;47.892;16.406;2023-08-21T07:49:52;10.73;;;7.90;;
10333;SDS011;5212;47.892;16.406;2023-08-21T07:52:18;7.60;;;6.80;;
10333;SDS011;5212;47.892;16.406;2023-08-21T07:54:44;10.83;;;7.00;;
10333;SDS011;5212;47.892;16.406;2023-08-21T07:57:11;7.73;;;6.43;;
10333;SDS011;5212;47.892;16.406;2023-08-21T07:59:38;11.53;;;8.97;;
10333;SDS011;5212;47.892;16.406;2023-08-21T08:02:05;12.63;;;8.90;;
10333;SDS011;5212;47.892;16.406;2023-08-21T08:04:31;12.17;;;8.30;;
10333;SDS011;5212;47.892;16.406;2023-08-21T08:06:57;11.20;;;8.60;;
10333;SDS011;5212;47.892;16.406;2023-08-21T08:09:23;10.30;;;7.83;;
10333;SDS011;5212;47.892;16.406;2023-08-21T08:11:49;11.07;;;6.70;;
10333;SDS011;5212;47.892;16.406;2023-08-21T08:14:15;8.70;;;6.77;;
10333;SDS011;5212;47.892;16.406;2023-08-21T08:16:42;7.20;;;6.00;;
10333;SDS011;5212;47.892;16.406;2023-08-21T08:19:08;10.10;;;5.60;;
10333;SDS011;5212;47.892;16.406;2023-08-21T08:21:34;7.57;;;6.00;;
10333;SDS011;5212;47.892;16.406;2023-08-21T08:24:00;8.53;;;6.93;;
10333;SDS011;5212;47.892;16.406;2023-08-21T08:26:26;9.10;;;7.30;;
10333;SDS011;5212;47.892;16.406;2023-08-21T08:28:52;9.33;;;7.80;;
10333;SDS011;5212;47.892;16.406;2023-08-21T08:31:20;9.17;;;7.33;;
10333;SDS011;5212;47.892;16.406;2023-08-21T08:33:46;8.20;;;7.07;;
10333;SDS011;5212;47.892;16.406;2023-08-21T08:36:13;6.80;;;5.83;;
10333;SDS011;5212;47.892;16.406;2023-08-21T08:38:39;7.27;;;5.73;;
10333;SDS011;5212;47.892;16.406;2023-08-21T08:41:06;9.80;;;7.10;;
10333;SDS011;5212;47.892;16.406;2023-08-21T08:43:37;8.70;;;7.03;;
10333;SDS011;5212;47.892;16.406;2023-08-21T08:46:05;7.87;;;6.90;;
10333;SDS011;5212;47.892;16.406;2023-08-21T08:48:32;8.10;;;6.60;;
10333;SDS011;5212;47.892;16.406;2023-08-21T08:50:59;7.20;;;6.50;;
10333;SDS011;5212;47.892;16.406;2023-08-21T08:53:25;7.03;;;5.93;;
10333;SDS011;5212;47.892;16.406;2023-08-21T08:55:51;9.73;;;7.00;;
10333;SDS011;5212;47.892;16.406;2023-08-21T08:58:17;8.40;;;6.10;;
10333;SDS011;5212;47.892;16.406;2023-08-21T09:00:43;7.57;;;6.33;;
10333;SDS011;5212;47.892;16.406;2023-08-21T09:03:09;8.03;;;6.93;;
10333;SDS011;5212;47.892;16.406;2023-08-21T09:05:38;8.43;;;7.20;;
10333;SDS011;5212;47.892;16.406;2023-08-21T09:08:11;7.37;;;6.47;;
10333;SDS011;5212;47.892;16.406;2023-08-21T09:10:38;10.03;;;6.57;;
10333;SDS011;5212;47.892;16.406;2023-08-21T09:13:11;7.37;;;6.50;;
10333;SDS011;5212;47.892;16.406;2023-08-21T09:15:38;5.97;;;5.37;;
10333;SDS011;5212;47.892;16.406;2023-08-21T09:18:04;6.60;;;5.50;;
10333;SDS011;5212;47.892;16.406;2023-08-21T09:20:34;5.07;;;4.57;;
10333;SDS011;5212;47.892;16.406;2023-08-21T09:23:01;4.90;;;4.23;;
10333;SDS011;5212;47.892;16.406;2023-08-21T09:25:27;5.82;;;4.82;;
10333;SDS011;5212;47.892;16.406;2023-08-21T09:27:53;5.63;;;4.47;;
10333;SDS011;5212;47.892;16.406;2023-08-21T09:30:19;6.78;;;5.28;;
10333;SDS011;5212;47.892;16.406;2023-08-21T09:32:54;7.82;;;6.20;;
10333;SDS011;5212;47.892;16.406;2023-08-21T09:35:22;6.90;;;5.88;;
10333;SDS011;5212;47.892;16.406;2023-08-21T09:37:49;7.10;;;6.15;;
10333;SDS011;5212;47.892;16.406;2023-08-21T09:40:18;6.75;;;5.68;;
10333;SDS011;5212;47.892;16.406;2023-08-21T09:42:45;6.50;;;5.13;;
10333;SDS011;5212;47.892;16.406;2023-08-21T09:45:11;7.63;;;5.72;;
10333;SDS011;5212;47.892;16.406;2023-08-21T09:47:37;7.35;;;6.05;;
10333;SDS011;5212;47.892;16.406;2023-08-21T09:50:04;7.25;;;5.80;;
10333;SDS011;5212;47.892;16.406;2023-08-21T09:52:31;8.88;;;6.60;;
10333;SDS011;5212;47.892;16.406;2023-08-21T09:54:57;6.93;;;6.05;;
10333;SDS011;5212;47.892;16.406;2023-08-21T09:57:24;7.00;;;5.88;;
10333;SDS011;5212;47.892;16.406;2023-08-21T09:59:51;8.03;;;6.50;;
10333;SDS011;5212;47.892;16.406;2023-08-21T10:02:18;7.88;;;5.78;;
10333;SDS011;5212;47.892;16.406;2023-08-21T10:04:45;6.75;;;6.03;;
10333;SDS011;5212;47.892;16.406;2023-08-21T10:07:11;6.13;;;5.28;;
10333;SDS011;5212;47.892;16.406;2023-08-21T10:09:38;5.53;;;4.80;;
10333;SDS011;5212;47.892;16.406;2023-08-21T10:12:05;7.25;;;5.85;;
10333;SDS011;5212;47.892;16.406;2023-08-21T10:14:32;7.45;;;5.15;;
10333;SDS011;5212;47.892;16.406;2023-08-21T10:16:59;7.10;;;5.93;;
10333;SDS011;5212;47.892;16.406;2023-08-21T10:19:30;5.68;;;4.88;;
10333;SDS011;5212;47.892;16.406;2023-08-21T10:21:56;6.18;;;5.22;;
10333;SDS011;5212;47.892;16.406;2023-08-21T10:24:27;6.07;;;5.47;;
10333;SDS011;5212;47.892;16.406;2023-08-21T10:26:54;6.63;;;5.80;;
10333;SDS011;5212;47.892;16.406;2023-08-21T10:29:20;5.65;;;5.03;;
10333;SDS011;5212;47.892;16.406;2023-08-21T10:31:46;6.65;;;5.25;;
10333;SDS011;5212;47.892;16.406;2023-08-21T10:34:25;7.00;;;5.20;;
10333;SDS011;5212;47.892;16.406;2023-08-21T10:37:06;7.05;;;5.35;;
10333;SDS011;5212;47.892;16.406;2023-08-21T10:39:35;7.43;;;4.85;;
10333;SDS011;5212;47.892;16.406;2023-08-21T10:42:03;5.45;;;4.75;;
10333;SDS011;5212;47.892;16.406;2023-08-21T10:44:34;4.47;;;4.03;;
10333;SDS011;5212;47.892;16.406;2023-08-21T10:47:13;5.82;;;5.20;;
10333;SDS011;5212;47.892;16.406;2023-08-21T10:49:40;5.30;;;4.80;;
10333;SDS011;5212;47.892;16.406;2023-08-21T10:52:07;5.75;;;4.90;;
10333;SDS011;5212;47.892;16.406;2023-08-21T10:54:42;6.03;;;5.20;;
10333;SDS011;5212;47.892;16.406;2023-08-21T10:57:09;8.35;;;4.97;;
10333;SDS011;5212;47.892;16.406;2023-08-21T10:59:35;6.72;;;5.40;;
10333;SDS011;5212;47.892;16.406;2023-08-21T11:02:01;5.78;;;4.72;;
10333;SDS011;5212;47.892;16.406;2023-08-21T11:04:29;6.38;;;4.97;;
10333;SDS011;5212;47.892;16.406;2023-08-21T11:06:55;5.85;;;4.85;;
10333;SDS011;5212;47.892;16.406;2023-08-21T11:09:22;5.40;;;4.55;;
10333;SDS011;5212;47.892;16.406;2023-08-21T11:11:48;6.18;;;4.93;;
10333;SDS011;5212;47.892;16.406;2023-08-21T11:14:14;6.30;;;4.30;;
10333;SDS011;5212;47.892;16.406;2023-08-21T11:16:40;6.00;;;4.97;;
10333;SDS011;5212;47.892;16.406;2023-08-21T11:19:06;5.05;;;4.57;;
10333;SDS011;5212;47.892;16.406;2023-08-21T11:21:33;6.70;;;4.97;;
10333;SDS011;5212;47.892;16.406;2023-08-21T11:23:59;7.47;;;5.30;;
10333;SDS011;5212;47.892;16.406;2023-08-21T11:26:25;7.28;;;4.70;;
10333;SDS011;5212;47.892;16.406;2023-08-21T11:28:51;6.40;;;4.82;;
10333;SDS011;5212;47.892;16.406;2023-08-21T11:31:17;5.50;;;4.63;;
10333;SDS011;5212;47.892;16.406;2023-08-21T11:33:48;5.00;;;4.50;;
10333;SDS011;5212;47.892;16.406;2023-08-21T11:36:15;4.60;;;4.07;;
10333;SDS011;5212;47.892;16.406;2023-08-21T11:38:41;5.60;;;4.20;;
10333;SDS011;5212;47.892;16.406;2023-08-21T11:41:08;4.40;;;3.67;;
10333;SDS011;5212;47.892;16.406;2023-08-21T11:43:34;6.55;;;4.10;;
10333;SDS011;5212;47.892;16.406;2023-08-21T11:46:01;5.10;;;4.00;;
10333;SDS011;5212;47.892;16.406;2023-08-21T11:48:27;6.05;;;4.93;;
10333;SDS011;5212;47.892;16.406;2023-08-21T11:50:53;5.13;;;4.47;;
10333;SDS011;5212;47.892;16.406;2023-08-21T11:53:30;5.60;;;4.80;;
10333;SDS011;5212;47.892;16.406;2023-08-21T11:56:01;6.53;;;5.30;;
10333;SDS011;5212;47.892;16.406;2023-08-21T11:58:27;6.28;;;5.13;;
10333;SDS011;5212;47.892;16.406;2023-08-21T12:00:53;5.35;;;4.85;;
10333;SDS011;5212;47.892;16.406;2023-08-21T12:03:19;5.50;;;4.75;;
10333;SDS011;5212;47.892;16.406;2023-08-21T12:05:45;6.40;;;4.90;;
10333;SDS011;5212;47.892;16.406;2023-08-21T12:08:11;5.40;;;4.90;;
10333;SDS011;5212;47.892;16.406;2023-08-21T12:10:37;5.72;;;4.93;;
10333;SDS011;5212;47.892;16.406;2023-08-21T12:13:04;6.57;;;5.25;;
10333;SDS011;5212;47.892;16.406;2023-08-21T12:15:30;5.82;;;4.85;;
10333;SDS011;5212;47.892;16.406;2023-08-21T12:17:56;6.95;;;5.38;;
10333;SDS011;5212;47.892;16.406;2023-08-21T12:20:22;6.43;;;5.38;;
10333;SDS011;5212;47.892;16.406;2023-08-21T12:22:48;5.88;;;5.28;;
10333;SDS011;5212;47.892;16.406;2023-08-21T12:25:14;5.90;;;5.00;;
10333;SDS011;5212;47.892;16.406;2023-08-21T12:27:41;5.15;;;4.47;;
10333;SDS011;5212;47.892;16.406;2023-08-21T12:30:08;4.95;;;4.45;;
10333;SDS011;5212;47.892;16.406;2023-08-21T12:32:35;5.35;;;4.80;;
10333;SDS011;5212;47.892;16.406;2023-08-21T12:35:01;5.25;;;4.72;;
10333;SDS011;5212;47.892;16.406;2023-08-21T12:37:29;6.72;;;5.43;;
10333;SDS011;5212;47.892;16.406;2023-08-21T12:39:55;5.97;;;5.28;;
10333;SDS011;5212;47.892;16.406;2023-08-21T12:42:21;5.32;;;4.38;;
10333;SDS011;5212;47.892;16.406;2023-08-21T12:44:47;4.70;;;4.20;;
10333;SDS011;5212;47.892;16.406;2023-08-21T12:47:14;4.68;;;4.03;;
10333;SDS011;5212;47.892;16.406;2023-08-21T12:49:40;5.35;;;4.68;;
10333;SDS011;5212;47.892;16.406;2023-08-21T12:52:06;6.97;;;4.88;;
10333;SDS011;5212;47.892;16.406;2023-08-21T12:54:32;6.63;;;4.72;;
10333;SDS011;5212;47.892;16.406;2023-08-21T12:56:58;4.50;;;3.83;;
10333;SDS011;5212;47.892;16.406;2023-08-21T12:59:24;5.55;;;4.50;;
10333;SDS011;5212;47.892;16.406;2023-08-21T13:01:50;5.43;;;3.90;;
10333;SDS011;5212;47.892;16.406;2023-08-21T13:04:17;5.80;;;4.68;;
10333;SDS011;5212;47.892;16.406;2023-08-21T13:06:43;5.13;;;4.13;;
10333;SDS011;5212;47.892;16.406;2023-08-21T13:09:09;4.40;;;3.95;;
10333;SDS011;5212;47.892;16.406;2023-08-21T13:11:35;4.10;;;3.70;;
10333;SDS011;5212;47.892;16.406;2023-08-21T13:14:01;4.82;;;3.65;;
10333;SDS011;5212;47.892;16.406;2023-08-21T13:16:27;3.80;;;3.40;;
10333;SDS011;5212;47.892;16.406;2023-08-21T13:18:53;4.43;;;2.97;;
10333;SDS011;5212;47.892;16.406;2023-08-21T13:21:20;4.75;;;2.95;;
10333;SDS011;5212;47.892;16.406;2023-08-21T13:23:46;4.30;;;3.03;;
10333;SDS011;5212;47.892;16.406;2023-08-21T13:26:12;4.05;;;3.13;;
10333;SDS011;5212;47.892;16.406;2023-08-21T13:28:38;3.45;;;2.97;;
10333;SDS011;5212;47.892;16.406;2023-08-21T13:31:04;3.85;;;3.45;;
10333;SDS011;5212;47.892;16.406;2023-08-21T13:33:32;5.80;;;3.10;;
10333;SDS011;5212;47.892;16.406;2023-08-21T13:35:58;3.13;;;2.65;;
10333;SDS011;5212;47.892;16.406;2023-08-21T13:38:24;2.85;;;2.55;;
10333;SDS011;5212;47.892;16.406;2023-08-21T13:40:50;2.63;;;2.40;;
10333;SDS011;5212;47.892;16.406;2023-08-21T13:43:16;3.58;;;2.58;;
10333;SDS011;5212;47.892;16.406;2023-08-21T13:45:42;3.50;;;3.15;;
10333;SDS011;5212;47.892;16.406;2023-08-21T13:48:08;3.88;;;2.63;;
10333;SDS011;5212;47.892;16.406;2023-08-21T13:50:34;3.08;;;2.50;;
10333;SDS011;5212;47.892;16.406;2023-08-21T13:53:00;3.45;;;2.10;;
10333;SDS011;5212;47.892;16.406;2023-08-21T13:55:27;4.38;;;2.60;;
10333;SDS011;5212;47.892;16.406;2023-08-21T13:57:53;2.63;;;2.35;;
10333;SDS011;5212;47.892;16.406;2023-08-21T14:00:19;2.88;;;2.35;;
10333;SDS011;5212;47.892;16.406;2023-08-21T14:02:45;2.83;;;2.40;;
10333;SDS011;5212;47.892;16.406;2023-08-21T14:05:11;2.78;;;2.22;;
10333;SDS011;5212;47.892;16.406;2023-08-21T14:07:37;2.95;;;2.17;;
10333;SDS011;5212;47.892;16.406;2023-08-21T14:10:04;2.95;;;2.25;;
10333;SDS011;5212;47.892;16.406;2023-08-21T14:12:32;2.65;;;2.40;;
10333;SDS011;5212;47.892;16.406;2023-08-21T14:14:58;2.38;;;2.03;;
10333;SDS011;5212;47.892;16.406;2023-08-21T14:17:25;2.58;;;1.90;;
10333;SDS011;5212;47.892;16.406;2023-08-21T14:19:51;2.57;;;2.03;;
10333;SDS011;5212;47.892;16.406;2023-08-21T14:22:17;4.07;;;2.08;;
10333;SDS011;5212;47.892;16.406;2023-08-21T14:24:43;4.30;;;2.60;;
10333;SDS011;5212;47.892;16.406;2023-08-21T14:27:09;4.90;;;2.97;;
10333;SDS011;5212;47.892;16.406;2023-08-21T14:29:35;4.60;;;3.28;;
10333;SDS011;5212;47.892;16.406;2023-08-21T14:32:02;5.27;;;3.17;;
10333;SDS011;5212;47.892;16.406;2023-08-21T14:34:28;2.53;;;2.33;;
10333;SDS011;5212;47.892;16.406;2023-08-21T14:36:54;2.97;;;2.33;;
10333;SDS011;5212;47.892;16.406;2023-08-21T14:39:21;5.57;;;2.67;;
10333;SDS011;5212;47.892;16.406;2023-08-21T14:41:52;2.83;;;2.53;;